Time;durP1;ratioP1;P1;durP2;ratioP2;P2;SDS_P1;SDS_P2;PMS_P1;PMS_P2;Temp;Humidity;BMP_temperature;BMP_pressure;BME280_temperature;BME280_humidity;BME280_pressure;Samples;Min_cycle;Max_cycle;Signal;HPM_P1;HPM_P2
2022/09/30 00:00:57;;;;;;;;;;;;;;;6.50;83.63;100750.53;4965799;28;19914;-69
2022/09/30 00:03:23;;;;;;;;;;;;;;;6.47;83.31;100749.56;4965734;28;20293;-70
2022/09/30 00:05:54;;;;;;;;;;;;;;;6.46;83.74;100753.84;4966574;28;19914;-70
2022/09/30 00:08:19;;;;;;;;;;;;;;;6.45;83.32;100757.25;4967722;28;19914;-69
2022/09/30 00:10:44;;;;;;;;;;;;;;;6.44;83.52;100758.97;4964989;28;19952;-70
2022/09/30 00:13:10;;;;;;;;;;;;;;;6.41;83.46;100761.41;4971615;28;19964;-70
2022/09/30 00:15:35;;;;;;;;;;;;;;;6.40;83.34;100758.78;4965570;28;19976;-70
2022/09/30 00:18:00;;;;;;;;;;;;;;;6.38;83.48;100763.88;4964462;28;19914;-70
2022/09/30 00:20:25;;;;;;;;;;;;;;;6.38;83.33;100766.47;4965298;28;20068;-70
2022/09/30 00:22:51;;;;;;;;;;;;;;;6.36;83.55;100772.44;4964811;28;19957;-70
2022/09/30 00:25:16;;;;;;;;;;;;;;;6.24;83.71;100763.38;4965909;28;20441;-70
2022/09/30 00:27:42;;;;;;;;;;;;;;;6.18;83.99;100767.41;4965094;28;19988;-69
2022/09/30 00:30:08;;;;;;;;;;;;;;;6.17;84.31;100765.63;4964441;28;20409;-70
2022/09/30 00:32:33;;;;;;;;;;;;;;;6.10;84.18;100761.94;4965153;28;19906;-70
2022/09/30 00:34:58;;;;;;;;;;;;;;;6.03;84.33;100765.09;4965429;28;20077;-70
2022/09/30 00:37:23;;;;;;;;;;;;;;;5.91;84.37;100768.03;4971933;28;19921;-70
2022/09/30 00:39:48;;;;;;;;;;;;;;;5.86;84.75;100760.06;4972898;28;19914;-70
2022/09/30 00:42:14;;;;;;;;;;;;;;;5.84;84.89;100764.28;4973764;28;19977;-70
2022/09/30 00:44:45;;;;;;;;;;;;;;;5.87;84.50;100766.13;4972914;28;19918;-70
2022/09/30 00:47:20;;;;;;;;;;;;;;;5.90;84.42;100759.38;4966707;28;19979;-69
2022/09/30 00:49:45;;;;;;;;;;;;;;;5.94;84.27;100760.38;4966705;28;19918;-70
2022/09/30 00:52:11;;;;;;;;;;;;;;;5.95;84.62;100759.53;4964328;28;19921;-70
2022/09/30 00:54:36;;;;;;;;;;;;;;;5.95;84.14;100756.97;4965257;28;19914;-70
2022/09/30 00:57:05;;;;;;;;;;;;;;;5.97;84.41;100765.72;4963237;28;20007;-70
2022/09/30 00:59:37;;;;;;;;;;;;;;;6.00;84.12;100768.41;4964192;28;19906;-69
2022/09/30 01:02:02;;;;;;;;;;;;;;;6.03;84.05;100765.97;4964384;28;20388;-70
2022/09/30 01:04:29;;;;;;;;;;;;;;;6.02;84.27;100764.19;4964182;28;19914;-68
2022/09/30 01:06:54;;;;;;;;;;;;;;;6.03;84.50;100770.25;4946171;28;20020;-70
2022/09/30 01:09:20;;;;;;;;;;;;;;;6.04;84.20;100769.41;4945976;28;20383;-70
2022/09/30 01:11:45;;;;;;;;;;;;;;;6.05;84.08;100768.59;4964217;28;19922;-70
2022/09/30 01:14:14;;;;;;;;;;;;;;;6.03;84.22;100763.38;4964486;28;20362;-69
2022/09/30 01:16:39;;;;;;;;;;;;;;;6.02;83.97;100769.34;4962719;28;19969;-70
2022/09/30 01:19:20;;;;;;;;;;;;;;;5.99;84.14;100771.81;4970110;28;20009;-70
2022/09/30 01:21:54;;;;;;;;;;;;;;;5.96;84.13;100763.03;4969058;28;19917;-70
2022/09/30 01:24:22;;;;;;;;;;;;;;;5.91;84.34;100762.84;4970515;28;19925;-70
2022/09/30 01:26:56;;;;;;;;;;;;;;;5.88;84.43;100766.19;4967136;28;19921;-70
2022/09/30 01:29:37;;;;;;;;;;;;;;;5.88;84.32;100770.47;4962228;28;19966;-70
2022/09/30 01:32:20;;;;;;;;;;;;;;;5.87;84.26;100772.16;4963937;28;19909;-70
2022/09/30 01:35:06;;;;;;;;;;;;;;;5.86;84.27;100759.19;4963361;28;19953;-70
2022/09/30 01:37:43;;;;;;;;;;;;;;;5.80;84.34;100767.56;4941820;28;19922;-70
2022/09/30 01:40:31;;;;;;;;;;;;;;;5.71;84.13;100762.03;4963276;28;19914;-70
2022/09/30 01:43:06;;;;;;;;;;;;;;;5.68;84.11;100769.66;4957211;28;19925;-70
2022/09/30 01:45:34;;;;;;;;;;;;;;;5.66;84.23;100772.19;4963920;28;20396;-70
2022/09/30 01:48:02;;;;;;;;;;;;;;;5.65;84.12;100778.16;4962715;28;19980;-70
2022/09/30 01:50:37;;;;;;;;;;;;;;;5.64;84.16;100775.50;4963040;28;19922;-70
2022/09/30 01:53:07;;;;;;;;;;;;;;;5.66;84.17;100767.00;4965546;28;20005;-70
2022/09/30 01:55:37;;;;;;;;;;;;;;;5.69;84.14;100774.88;4962266;28;20388;-70
2022/09/30 01:58:28;;;;;;;;;;;;;;;5.70;84.35;100768.00;4962187;28;19928;-70
2022/09/30 02:00:56;;;;;;;;;;;;;;;5.69;84.20;100773.97;4962828;28;20317;-70
2022/09/30 02:03:33;;;;;;;;;;;;;;;5.67;83.94;100783.38;4962950;28;19924;-70
2022/09/30 02:06:07;;;;;;;;;;;;;;;5.68;83.98;100778.28;4961672;28;19917;-69
2022/09/30 02:08:50;;;;;;;;;;;;;;;5.67;84.33;100788.56;4962825;28;20005;-63
2022/09/30 02:11:24;;;;;;;;;;;;;;;5.67;84.30;100779.09;4962423;28;20394;-64
2022/09/30 02:14:10;;;;;;;;;;;;;;;5.66;84.01;100779.94;4962977;28;20509;-63
2022/09/30 02:16:41;;;;;;;;;;;;;;;5.66;84.29;100782.50;4954668;28;19945;-64
2022/09/30 02:19:25;;;;;;;;;;;;;;;5.64;84.16;100781.53;4962489;28;20627;-64
2022/09/30 02:21:59;;;;;;;;;;;;;;;5.58;84.38;100782.16;4964892;28;19917;-63
2022/09/30 02:24:27;;;;;;;;;;;;;;;5.54;84.16;100787.16;4964041;28;19918;-64
2022/09/30 02:26:53;;;;;;;;;;;;;;;5.51;84.13;100780.13;4964852;28;20049;-63
2022/09/30 02:29:24;;;;;;;;;;;;;;;5.50;84.20;100782.66;4963779;28;20033;-63
2022/09/30 02:31:52;;;;;;;;;;;;;;;5.49;84.50;100793.81;4965486;28;19918;-64
2022/09/30 02:34:23;;;;;;;;;;;;;;;5.48;84.07;100794.63;4968185;28;20065;-63
2022/09/30 02:36:52;;;;;;;;;;;;;;;5.48;84.50;100786.88;4965164;28;20004;-70
2022/09/30 02:39:20;;;;;;;;;;;;;;;5.47;84.57;100780.81;4961923;28;19918;-70
2022/09/30 02:41:52;;;;;;;;;;;;;;;5.48;84.33;100777.44;4967293;28;20297;-69
2022/09/30 02:44:18;;;;;;;;;;;;;;;5.38;84.12;100770.97;4966876;28;20397;-70
2022/09/30 02:46:52;;;;;;;;;;;;;;;5.34;84.58;100766.47;4970088;28;19918;-70
2022/09/30 02:49:20;;;;;;;;;;;;;;;5.34;84.51;100774.22;4969742;28;19921;-70
2022/09/30 02:51:57;;;;;;;;;;;;;;;5.34;84.28;100774.22;4969849;28;19914;-69
2022/09/30 02:54:29;;;;;;;;;;;;;;;5.36;84.51;100784.66;4966229;28;19945;-70
2022/09/30 02:57:02;;;;;;;;;;;;;;;5.36;84.90;100782.94;4965867;28;19957;-69
2022/09/30 02:59:27;;;;;;;;;;;;;;;5.39;84.74;100782.22;4969638;28;20352;-70
2022/09/30 03:01:53;;;;;;;;;;;;;;;5.40;84.82;100774.53;4968478;28;19954;-70
2022/09/30 03:04:21;;;;;;;;;;;;;;;5.38;84.48;100775.25;4969191;28;20314;-70
2022/09/30 03:06:46;;;;;;;;;;;;;;;5.36;84.62;100772.63;4967802;28;19953;-70
2022/09/30 03:09:11;;;;;;;;;;;;;;;5.36;84.46;100776.91;4967941;28;19953;-70
2022/09/30 03:11:37;;;;;;;;;;;;;;;5.34;84.54;100774.22;4970807;28;19914;-70
2022/09/30 03:14:12;;;;;;;;;;;;;;;5.36;84.43;100785.53;4964835;28;20402;-69
2022/09/30 03:16:37;;;;;;;;;;;;;;;5.35;84.68;100791.50;4960240;28;19918;-70
2022/09/30 03:19:05;;;;;;;;;;;;;;;5.31;84.36;100792.19;4963223;28;19920;-69
2022/09/30 03:21:36;;;;;;;;;;;;;;;5.27;84.78;100782.56;4964562;28;20323;-69
2022/09/30 03:24:07;;;;;;;;;;;;;;;5.22;84.75;100786.63;4962886;28;19933;-69
2022/09/30 03:26:55;;;;;;;;;;;;;;;5.20;84.70;100786.56;4968982;28;19922;-69
2022/09/30 03:29:20;;;;;;;;;;;;;;;5.20;84.36;100791.72;4966814;28;19926;-70
2022/09/30 03:31:45;;;;;;;;;;;;;;;5.19;84.40;100791.66;4968416;28;19910;-69
2022/09/30 03:34:20;;;;;;;;;;;;;;;5.17;84.60;100790.69;4966495;28;19956;-70
2022/09/30 03:37:01;;;;;;;;;;;;;;;5.10;84.95;100788.66;4968270;28;19914;-70
2022/09/30 03:39:36;;;;;;;;;;;;;;;4.94;85.15;100790.56;4963897;28;19918;-70
2022/09/30 03:42:09;;;;;;;;;;;;;;;4.81;85.37;100786.53;4960512;28;20022;-70
2022/09/30 03:44:39;;;;;;;;;;;;;;;4.71;85.57;100779.19;4967643;28;19913;-70
2022/09/30 03:47:09;;;;;;;;;;;;;;;4.65;85.71;100784.94;4967404;28;20377;-70
2022/09/30 03:49:36;;;;;;;;;;;;;;;4.67;85.85;100798.78;4963803;28;19980;-70
2022/09/30 03:52:06;;;;;;;;;;;;;;;4.70;85.67;100803.22;4968900;28;20440;-70
2022/09/30 03:54:32;;;;;;;;;;;;;;;4.74;85.58;100794.81;4965124;28;19976;-70
2022/09/30 03:57:02;;;;;;;;;;;;;;;4.77;85.52;100800.09;4972096;28;19922;-70
2022/09/30 03:59:27;;;;;;;;;;;;;;;4.80;85.81;100804.53;4972756;28;20374;-70
2022/09/30 04:01:52;;;;;;;;;;;;;;;4.83;85.63;100804.66;4973660;28;19945;-70
2022/09/30 04:04:18;;;;;;;;;;;;;;;4.86;85.49;100815.13;4973427;28;19961;-70
2022/09/30 04:06:43;;;;;;;;;;;;;;;4.86;85.26;100815.13;4967176;28;20466;-70
2022/09/30 04:09:09;;;;;;;;;;;;;;;4.87;85.30;100822.06;4965140;28;20302;-69
2022/09/30 04:11:34;;;;;;;;;;;;;;;4.88;85.37;100821.22;4964889;28;19914;-70
2022/09/30 04:14:00;;;;;;;;;;;;;;;4.91;85.31;100824.00;4966872;28;19925;-70
2022/09/30 04:16:27;;;;;;;;;;;;;;;4.93;85.20;100831.81;4964847;28;20433;-70
2022/09/30 04:18:52;;;;;;;;;;;;;;;4.90;85.45;100839.41;4964386;28;19930;-70
2022/09/30 04:21:17;;;;;;;;;;;;;;;4.90;85.26;100847.16;4964982;28;19926;-70
2022/09/30 04:23:42;;;;;;;;;;;;;;;4.90;85.19;100850.59;4965022;28;20401;-69
2022/09/30 04:26:10;;;;;;;;;;;;;;;4.90;85.24;100858.34;4965334;28;20032;-70
2022/09/30 04:28:35;;;;;;;;;;;;;;;4.90;85.49;100866.09;4964833;28;19965;-70
2022/09/30 04:31:02;;;;;;;;;;;;;;;4.90;85.53;100862.66;4965208;28;19918;-70
2022/09/30 04:33:27;;;;;;;;;;;;;;;4.91;85.29;100865.31;4964633;28;19929;-69
2022/09/30 04:35:56;;;;;;;;;;;;;;;4.90;85.17;100866.09;4964323;28;19922;-70
2022/09/30 04:38:23;;;;;;;;;;;;;;;4.92;85.33;100861.00;4963774;28;19917;-64
2022/09/30 04:40:48;;;;;;;;;;;;;;;4.94;85.42;100860.28;4964262;28;19922;-63
2022/09/30 04:43:15;;;;;;;;;;;;;;;4.97;85.79;100859.53;4964709;28;19918;-63
2022/09/30 04:45:42;;;;;;;;;;;;;;;5.00;85.78;100852.81;4964284;28;19961;-63
2022/09/30 04:48:07;;;;;;;;;;;;;;;5.02;85.66;100860.63;4964200;28;19914;-63
2022/09/30 04:50:32;;;;;;;;;;;;;;;5.03;85.43;100865.84;4964767;28;20073;-63
2022/09/30 04:52:58;;;;;;;;;;;;;;;5.01;85.27;100870.06;4968284;28;19997;-63
2022/09/30 04:55:23;;;;;;;;;;;;;;;4.98;85.34;100871.63;4963338;28;20294;-63
2022/09/30 04:57:49;;;;;;;;;;;;;;;4.94;85.60;100870.59;4970019;28;19921;-64
2022/09/30 05:00:14;;;;;;;;;;;;;;;4.95;85.60;100881.81;4964332;28;19933;-63
2022/09/30 05:02:41;;;;;;;;;;;;;;;4.95;85.35;100881.81;4971748;28;19914;-63
2022/09/30 05:05:07;;;;;;;;;;;;;;;4.97;85.89;100881.06;4963179;28;19910;-64
2022/09/30 05:07:32;;;;;;;;;;;;;;;5.00;85.69;100883.78;4963160;28;20366;-70
2022/09/30 05:09:57;;;;;;;;;;;;;;;5.04;85.82;100883.13;4964164;28;20301;-70
2022/09/30 05:12:22;;;;;;;;;;;;;;;5.05;85.55;100884.91;4964217;28;20321;-69
2022/09/30 05:14:47;;;;;;;;;;;;;;;5.07;85.25;100881.47;4963061;28;19925;-70
2022/09/30 05:17:13;;;;;;;;;;;;;;;5.07;85.65;100886.66;4964142;28;20008;-70
2022/09/30 05:19:38;;;;;;;;;;;;;;;5.05;85.61;100884.00;4964387;28;19918;-69
2022/09/30 05:22:03;;;;;;;;;;;;;;;5.01;85.60;100892.41;4964396;28;19918;-69
2022/09/30 05:24:29;;;;;;;;;;;;;;;4.98;85.68;100895.75;4967519;28;19918;-70
2022/09/30 05:26:55;;;;;;;;;;;;;;;4.95;85.56;100903.34;4972219;28;19910;-70
2022/09/30 05:29:20;;;;;;;;;;;;;;;4.93;85.67;100896.34;4972588;28;19910;-70
2022/09/30 05:31:45;;;;;;;;;;;;;;;4.93;85.31;100896.34;4970749;28;19914;-71
2022/09/30 05:34:10;;;;;;;;;;;;;;;4.95;85.29;100899.88;4972816;28;19913;-69
2022/09/30 05:36:35;;;;;;;;;;;;;;;4.95;85.37;100894.72;4972088;28;19957;-63
2022/09/30 05:39:01;;;;;;;;;;;;;;;4.94;85.60;100901.59;4968110;28;19937;-64
2022/09/30 05:41:26;;;;;;;;;;;;;;;4.93;85.59;100904.09;4963097;28;20317;-63
2022/09/30 05:43:51;;;;;;;;;;;;;;;4.93;85.57;100912.72;4964056;28;19918;-63
2022/09/30 05:46:17;;;;;;;;;;;;;;;4.92;85.91;100913.53;4963485;28;19976;-63
2022/09/30 05:48:43;;;;;;;;;;;;;;;4.93;85.33;100928.22;4969376;28;21284;-63
2022/09/30 05:51:08;;;;;;;;;;;;;;;4.92;85.75;100928.13;4968653;28;19917;-63
2022/09/30 05:53:37;;;;;;;;;;;;;;;4.92;85.68;100934.19;4963384;28;19922;-63
2022/09/30 05:56:02;;;;;;;;;;;;;;;4.92;85.62;100939.34;4962828;28;19926;-63
2022/09/30 05:58:28;;;;;;;;;;;;;;;4.91;85.78;100936.69;4963470;28;19984;-64
2022/09/30 06:00:53;;;;;;;;;;;;;;;4.89;85.72;100944.34;4963368;28;20354;-64
2022/09/30 06:03:18;;;;;;;;;;;;;;;4.87;85.47;100940.84;4963367;28;19922;-63
2022/09/30 06:05:44;;;;;;;;;;;;;;;4.88;85.65;100946.06;4965511;28;19922;-63
2022/09/30 06:08:10;;;;;;;;;;;;;;;4.91;85.71;100947.00;4968847;28;20266;-69
2022/09/30 06:10:35;;;;;;;;;;;;;;;4.91;86.04;100947.91;4965381;28;20001;-69
2022/09/30 06:13:03;;;;;;;;;;;;;;;4.92;85.91;100949.66;4964768;28;20017;-69
2022/09/30 06:15:28;;;;;;;;;;;;;;;4.94;85.97;100955.81;4950404;28;19989;-69
2022/09/30 06:17:54;;;;;;;;;;;;;;;4.95;85.87;100957.56;4965928;28;20353;-69
2022/09/30 06:20:19;;;;;;;;;;;;;;;4.97;85.78;100958.53;4964580;28;19964;-70
2022/09/30 06:22:45;;;;;;;;;;;;;;;4.98;85.90;100955.16;4969594;28;19991;-69
2022/09/30 06:25:10;;;;;;;;;;;;;;;4.99;86.08;100962.06;4970020;28;19913;-69
2022/09/30 06:27:38;;;;;;;;;;;;;;;5.00;85.82;100961.25;4969223;28;19968;-69
2022/09/30 06:30:04;;;;;;;;;;;;;;;5.04;86.23;100970.06;4961020;28;19921;-70
2022/09/30 06:32:30;;;;;;;;;;;;;;;5.06;86.12;100973.59;4963843;28;19918;-69
2022/09/30 06:34:55;;;;;;;;;;;;;;;5.07;86.17;100970.19;4965544;28;19922;-69
2022/09/30 06:37:21;;;;;;;;;;;;;;;5.09;86.21;100968.56;4963671;28;20460;-70
2022/09/30 06:39:46;;;;;;;;;;;;;;;5.11;85.97;100972.09;4967881;28;19930;-70
2022/09/30 06:42:11;;;;;;;;;;;;;;;5.15;86.20;100965.38;4969095;28;19910;-69
2022/09/30 06:44:37;;;;;;;;;;;;;;;5.17;86.18;100964.66;4971876;28;19952;-70
2022/09/30 06:47:02;;;;;;;;;;;;;;;5.18;86.74;100956.06;4966482;28;20353;-70
2022/09/30 06:49:27;;;;;;;;;;;;;;;5.22;86.91;100960.56;4971283;28;19969;-70
2022/09/30 06:51:52;;;;;;;;;;;;;;;5.26;86.50;100961.63;4969562;28;19965;-69
2022/09/30 06:54:19;;;;;;;;;;;;;;;5.31;86.71;100965.28;4966849;28;21971;-69
2022/09/30 06:56:45;;;;;;;;;;;;;;;5.36;86.97;100957.78;4969660;28;19914;-69
2022/09/30 06:59:10;;;;;;;;;;;;;;;5.41;86.82;100953.69;4971405;28;19973;-69
2022/09/30 07:01:35;;;;;;;;;;;;;;;5.45;86.87;100950.44;4967695;28;19910;-69
2022/09/30 07:04:06;;;;;;;;;;;;;;;5.53;87.55;100955.94;4969741;28;20341;-69
2022/09/30 07:06:32;;;;;;;;;;;;;;;5.59;87.32;100961.41;4966247;28;19910;-69
2022/09/30 07:08:57;;;;;;;;;;;;;;;5.65;87.19;100964.28;4968994;28;19914;-70
2022/09/30 07:11:23;;;;;;;;;;;;;;;5.71;87.31;100961.94;4967225;28;19921;-69
2022/09/30 07:13:48;;;;;;;;;;;;;;;5.75;87.57;100969.03;4966403;28;19929;-69
2022/09/30 07:16:16;;;;;;;;;;;;;;;5.80;87.74;100960.59;4968439;28;20161;-63
2022/09/30 07:18:41;;;;;;;;;;;;;;;5.85;87.70;100966.84;4964242;28;19921;-63
2022/09/30 07:21:07;;;;;;;;;;;;;;;5.88;87.57;100960.13;4966233;28;19918;-63
2022/09/30 07:23:32;;;;;;;;;;;;;;;5.94;87.91;100967.28;4969904;28;19953;-63
2022/09/30 07:26:03;;;;;;;;;;;;;;;6.00;87.89;100966.69;4968054;28;19921;-64
2022/09/30 07:28:30;;;;;;;;;;;;;;;6.04;88.30;100961.72;4972241;28;19918;-63
2022/09/30 07:30:57;;;;;;;;;;;;;;;6.09;87.93;100961.91;4974177;28;19913;-64
2022/09/30 07:33:23;;;;;;;;;;;;;;;6.15;88.34;100964.75;4973528;28;20095;-63
2022/09/30 07:35:49;;;;;;;;;;;;;;;6.18;88.85;100972.66;4969916;28;20460;-63
2022/09/30 07:38:15;;;;;;;;;;;;;;;6.23;88.85;100978.94;4965040;28;19922;-63
2022/09/30 07:40:41;;;;;;;;;;;;;;;6.33;90.35;100974.13;4962921;28;19926;-63
2022/09/30 07:43:07;;;;;;;;;;;;;;;6.41;90.20;100977.94;4964638;28;19957;-64
2022/09/30 07:45:32;;;;;;;;;;;;;;;6.52;91.40;100981.00;4964097;28;20397;-63
2022/09/30 07:47:58;;;;;;;;;;;;;;;6.64;90.36;100986.69;4963042;28;20018;-69
2022/09/30 07:50:23;;;;;;;;;;;;;;;6.71;90.62;100977.47;4967048;28;19957;-69
2022/09/30 07:52:48;;;;;;;;;;;;;;;6.78;91.25;100970.00;4971931;28;20005;-70
2022/09/30 07:55:13;;;;;;;;;;;;;;;6.87;91.06;100964.31;4972211;28;20289;-70
2022/09/30 07:57:39;;;;;;;;;;;;;;;6.94;90.78;100962.88;4970215;28;19914;-70
2022/09/30 08:00:06;;;;;;;;;;;;;;;7.01;91.08;100970.06;4972021;28;19929;-71
2022/09/30 08:02:31;;;;;;;;;;;;;;;7.09;91.67;100965.19;4967398;28;19937;-70
2022/09/30 08:04:56;;;;;;;;;;;;;;;7.16;91.28;100968.91;4967969;28;20496;-69
2022/09/30 08:07:21;;;;;;;;;;;;;;;7.22;91.02;100979.50;4969840;28;19921;-69
2022/09/30 08:09:46;;;;;;;;;;;;;;;7.27;91.16;100975.38;4966244;28;19964;-70
2022/09/30 08:12:12;;;;;;;;;;;;;;;7.32;91.09;100960.91;4969210;28;20270;-70
2022/09/30 08:14:37;;;;;;;;;;;;;;;7.39;91.59;100965.50;4971701;28;19918;-70
2022/09/30 08:17:02;;;;;;;;;;;;;;;7.47;91.61;100961.50;4971523;28;20317;-63
2022/09/30 08:19:32;;;;;;;;;;;;;;;7.55;91.57;100961.78;4971381;28;20365;-62
2022/09/30 08:21:57;;;;;;;;;;;;;;;7.63;91.92;100970.75;4973505;28;19914;-63
2022/09/30 08:24:23;;;;;;;;;;;;;;;7.70;91.97;100974.44;4974125;28;19909;-63
2022/09/30 08:26:48;;;;;;;;;;;;;;;7.76;91.73;100971.19;4955774;28;19997;-62
2022/09/30 08:29:14;;;;;;;;;;;;;;;7.83;92.17;100967.97;4972159;28;19918;-63
2022/09/30 08:31:39;;;;;;;;;;;;;;;7.93;91.83;100975.28;4971610;28;19948;-63
2022/09/30 08:34:04;;;;;;;;;;;;;;;8.00;91.55;100968.59;4973221;28;20224;-63
2022/09/30 08:36:30;;;;;;;;;;;;;;;8.08;91.23;100976.66;4972963;28;20374;-63
2022/09/30 08:38:55;;;;;;;;;;;;;;;8.16;92.36;100968.31;4972533;28;19910;-63
2022/09/30 08:41:45;;;;;;;;;;;;;;;8.24;92.14;100960.81;4972934;28;20013;-63
2022/09/30 08:44:11;;;;;;;;;;;;;;;8.35;92.03;100968.97;4964215;28;19918;-63
2022/09/30 08:46:42;;;;;;;;;;;;;;;8.40;91.69;100972.63;4971320;28;19977;-70
2022/09/30 08:49:08;;;;;;;;;;;;;;;8.47;92.22;100974.63;4973760;28;19949;-69
2022/09/30 08:51:38;;;;;;;;;;;;;;;8.53;92.11;100980.03;4972025;28;19965;-69
2022/09/30 08:54:05;;;;;;;;;;;;;;;8.63;92.07;100989.00;4967478;28;19952;-69
2022/09/30 08:56:32;;;;;;;;;;;;;;;8.72;91.68;100982.34;4966918;28;20485;-69
2022/09/30 08:59:20;;;;;;;;;;;;;;;8.78;91.84;100993.81;4967571;28;20522;-69
2022/09/30 09:01:47;;;;;;;;;;;;;;;8.88;92.35;100984.63;4960583;28;20396;-68
2022/09/30 09:04:12;;;;;;;;;;;;;;;8.97;92.38;100986.66;4968889;28;19924;-69
2022/09/30 09:06:49;;;;;;;;;;;;;;;9.05;91.57;100982.56;4971321;28;19910;-69
2022/09/30 09:09:23;;;;;;;;;;;;;;;9.15;92.18;100974.25;4970926;28;20004;-69
2022/09/30 09:11:52;;;;;;;;;;;;;;;9.23;92.15;100958.88;4970707;28;19918;-70
2022/09/30 09:14:36;;;;;;;;;;;;;;;9.31;92.18;100954.81;4969000;28;19933;-69
2022/09/30 09:17:07;;;;;;;;;;;;;;;9.43;91.44;100967.28;4970253;28;19924;-69
2022/09/30 09:19:36;;;;;;;;;;;;;;;9.56;92.44;100989.34;4971279;28;19922;-69
2022/09/30 09:22:01;;;;;;;;;;;;;;;9.65;91.97;100971.41;4965118;28;19924;-69
2022/09/30 09:24:29;;;;;;;;;;;;;;;9.74;92.48;100976.84;4970876;28;19910;-69
2022/09/30 09:26:56;;;;;;;;;;;;;;;9.84;92.64;100974.53;4964184;28;19922;-70
2022/09/30 09:29:25;;;;;;;;;;;;;;;9.94;92.68;100976.56;4971003;28;19972;-70
2022/09/30 09:31:50;;;;;;;;;;;;;;;10.07;91.35;100980.41;4970751;28;19910;-69
2022/09/30 09:34:15;;;;;;;;;;;;;;;10.18;92.01;100989.38;4970941;28;19922;-70
2022/09/30 09:36:41;;;;;;;;;;;;;;;10.29;91.53;100997.47;4971566;28;20370;-70
2022/09/30 09:39:12;;;;;;;;;;;;;;;10.38;91.83;100989.94;4971613;28;19918;-70
2022/09/30 09:41:58;;;;;;;;;;;;;;;10.50;91.88;100988.50;4970435;28;19910;-69
2022/09/30 09:44:38;;;;;;;;;;;;;;;10.65;92.20;100988.03;4970528;28;20386;-70
2022/09/30 09:47:12;;;;;;;;;;;;;;;10.77;91.84;100983.13;4971275;28;19917;-71
2022/09/30 09:49:40;;;;;;;;;;;;;;;10.90;92.02;100979.09;4967080;28;19914;-70
2022/09/30 09:52:11;;;;;;;;;;;;;;;11.04;91.19;100976.84;4970175;28;19918;-71
2022/09/30 09:54:40;;;;;;;;;;;;;;;11.18;90.65;100972.81;4968025;28;19921;-70
2022/09/30 09:57:08;;;;;;;;;;;;;;;11.33;90.68;100963.59;4971280;28;20000;-70
2022/09/30 09:59:33;;;;;;;;;;;;;;;11.48;90.70;100964.81;4971752;28;20101;-71
2022/09/30 10:01:59;;;;;;;;;;;;;;;11.66;90.40;100961.69;4970868;28;19914;-71
2022/09/30 10:04:26;;;;;;;;;;;;;;;11.78;89.44;100968.88;4967329;28;19922;-71
2022/09/30 10:06:54;;;;;;;;;;;;;;;11.93;88.76;100968.34;4970345;28;19913;-71
2022/09/30 10:09:28;;;;;;;;;;;;;;;12.10;88.93;100970.44;4971288;28;19914;-71
2022/09/30 10:12:05;;;;;;;;;;;;;;;12.30;88.93;100962.97;4970347;28;19921;-71
2022/09/30 10:14:31;;;;;;;;;;;;;;;12.46;88.03;100969.34;4970743;28;19921;-71
2022/09/30 10:16:58;;;;;;;;;;;;;;;12.59;88.40;100966.09;4967935;28;20407;-69
2022/09/30 10:19:27;;;;;;;;;;;;;;;12.72;87.86;100971.53;4965231;28;19988;-69
2022/09/30 10:22:15;;;;;;;;;;;;;;;12.86;86.76;100972.63;4965811;28;19929;-69
2022/09/30 10:24:41;;;;;;;;;;;;;;;13.01;86.43;100979.84;4962930;28;19914;-69
2022/09/30 10:27:24;;;;;;;;;;;;;;;13.15;86.48;100977.44;4966526;28;19925;-69
2022/09/30 10:29:49;;;;;;;;;;;;;;;13.35;85.79;100977.75;4966514;28;19925;-69
2022/09/30 10:32:15;;;;;;;;;;;;;;;13.52;85.44;100978.00;4968845;28;19914;-69
2022/09/30 10:34:42;;;;;;;;;;;;;;;13.71;85.30;100973.88;4970763;28;19945;-69
2022/09/30 10:37:10;;;;;;;;;;;;;;;13.89;85.04;100973.25;4968946;28;19964;-69
2022/09/30 10:39:37;;;;;;;;;;;;;;;14.05;84.16;100975.19;4970701;28;20374;-69
2022/09/30 10:42:16;;;;;;;;;;;;;;;14.20;82.22;100978.84;4969294;28;19913;-69
2022/09/30 10:44:48;;;;;;;;;;;;;;;14.25;82.37;100978.03;4970227;28;19914;-69
2022/09/30 10:47:15;;;;;;;;;;;;;;;14.39;82.59;100978.16;4969586;28;20436;-69
2022/09/30 10:49:44;;;;;;;;;;;;;;;14.54;82.63;100980.06;4971672;28;19910;-70
2022/09/30 10:52:18;;;;;;;;;;;;;;;14.58;81.48;100976.59;4965797;28;19918;-69
2022/09/30 10:54:49;;;;;;;;;;;;;;;14.49;81.25;100979.13;4968155;28;19914;-70
2022/09/30 10:57:22;;;;;;;;;;;;;;;14.46;81.33;100976.47;4968361;28;19933;-64
2022/09/30 10:59:49;;;;;;;;;;;;;;;14.58;81.57;100980.94;4970936;28;19922;-64
2022/09/30 11:02:20;;;;;;;;;;;;;;;14.73;81.39;100970.66;4972020;28;19921;-63
2022/09/30 11:04:53;;;;;;;;;;;;;;;14.86;80.38;100963.75;4970276;28;19968;-64
2022/09/30 11:07:35;;;;;;;;;;;;;;;14.94;80.05;100963.81;4973282;28;19949;-64
2022/09/30 11:10:19;;;;;;;;;;;;;;;15.11;79.30;100959.56;4972344;28;19968;-64
2022/09/30 11:12:50;;;;;;;;;;;;;;;15.27;79.09;100959.66;4973480;28;19921;-64
2022/09/30 11:15:23;;;;;;;;;;;;;;;15.27;78.81;100967.53;4971547;28;19957;-64
2022/09/30 11:17:52;;;;;;;;;;;;;;;15.32;78.17;100962.31;4971160;28;19914;-64
2022/09/30 11:20:20;;;;;;;;;;;;;;;15.44;78.03;100960.63;4972820;28;20362;-64
2022/09/30 11:23:06;;;;;;;;;;;;;;;15.61;78.41;100960.72;4973509;28;20378;-64
2022/09/30 11:25:31;;;;;;;;;;;;;;;15.70;77.22;100953.75;4952313;28;19945;-64
2022/09/30 11:28:04;;;;;;;;;;;;;;;15.61;77.53;100957.19;4973191;28;19976;-64
2022/09/30 11:30:38;;;;;;;;;;;;;;;15.41;76.29;100959.72;4970675;28;19917;-64
2022/09/30 11:33:22;;;;;;;;;;;;;;;15.31;72.18;100956.19;4972103;28;19918;-65
2022/09/30 11:35:47;;;;;;;;;;;;;;;15.33;73.71;100951.81;4971520;28;19921;-64
2022/09/30 11:38:16;;;;;;;;;;;;;;;15.38;74.16;100952.72;4972068;28;19910;-64
2022/09/30 11:40:43;;;;;;;;;;;;;;;15.50;74.42;100953.63;4973636;28;19914;-64
2022/09/30 11:43:22;;;;;;;;;;;;;;;15.62;75.28;100941.44;4971092;28;19976;-64
2022/09/30 11:45:52;;;;;;;;;;;;;;;15.83;74.49;100939.84;4972628;28;19917;-64
2022/09/30 11:48:35;;;;;;;;;;;;;;;15.98;74.99;100939.00;4970188;28;19920;-64
2022/09/30 11:51:19;;;;;;;;;;;;;;;16.08;74.26;100938.13;4971188;28;20497;-64
2022/09/30 11:53:47;;;;;;;;;;;;;;;16.12;73.22;100926.75;4971658;28;19976;-64
2022/09/30 11:56:21;;;;;;;;;;;;;;;16.06;72.99;100937.28;4970796;28;20027;-70
2022/09/30 11:58:48;;;;;;;;;;;;;;;15.89;71.85;100934.59;4973023;28;19918;-71
2022/09/30 12:01:20;;;;;;;;;;;;;;;15.89;73.43;100931.97;4972899;28;19918;-70
2022/09/30 12:03:53;;;;;;;;;;;;;;;15.91;72.03;100926.72;4970396;28;19914;-70
2022/09/30 12:06:25;;;;;;;;;;;;;;;15.92;72.97;100923.22;4973464;28;19914;-70
2022/09/30 12:08:55;;;;;;;;;;;;;;;16.03;73.76;100923.22;4973488;28;19914;-71
2022/09/30 12:11:40;;;;;;;;;;;;;;;16.17;72.54;100927.63;4972835;28;19918;-70
2022/09/30 12:14:15;;;;;;;;;;;;;;;16.28;73.06;100924.13;4954034;28;20014;-71
2022/09/30 12:16:41;;;;;;;;;;;;;;;16.34;72.60;100918.91;4968358;28;19925;-71
2022/09/30 12:19:26;;;;;;;;;;;;;;;16.38;71.64;100915.41;4971107;28;19910;-70
2022/09/30 12:22:14;;;;;;;;;;;;;;;16.43;71.88;100905.75;4969744;28;19914;-71
2022/09/30 12:24:40;;;;;;;;;;;;;;;16.58;71.73;100907.50;4936467;28;19918;-70
2022/09/30 12:27:21;;;;;;;;;;;;;;;16.69;70.56;100897.00;4971012;28;19989;-70
2022/09/30 12:32:53;;;;;;;;;;;;;;;16.87;69.60;100898.72;4972781;28;19921;-70
2022/09/30 12:35:33;;;;;;;;;;;;;;;17.02;70.23;100893.47;4970765;28;20414;-70
2022/09/30 12:38:01;;;;;;;;;;;;;;;17.15;70.39;100893.44;4969061;28;19953;-70
2022/09/30 12:40:42;;;;;;;;;;;;;;;17.17;69.32;100884.63;4972461;28;19918;-71
2022/09/30 12:43:32;;;;;;;;;;;;;;;17.14;68.80;100886.41;4965615;28;19914;-70
2022/09/30 12:46:00;;;;;;;;;;;;;;;17.11;68.33;100891.69;4972260;28;19953;-70
2022/09/30 12:48:29;;;;;;;;;;;;;;;17.08;69.21;100889.94;4971777;28;20331;-70
2022/09/30 12:50:56;;;;;;;;;;;;;;;17.03;69.19;100883.78;4972625;28;19914;-70
2022/09/30 12:53:27;;;;;;;;;;;;;;;17.01;69.20;100888.19;4970743;28;19918;-70
2022/09/30 12:55:52;;;;;;;;;;;;;;;17.00;68.04;100883.81;4969826;28;20013;-70